Detall de PIREP

Printer-friendly versionPDF version

[2010/10/08 07:27:00]
Flight IATA:CT0001
Pilot Number:042
Company ICAO:CAT
Aircraft Type:B75F/E
PAX:3
Departing Airport: LEPA
Destination Airport: LEBL
Alternate Airport:LFBO
Online: VATSIM
Route:ESPOR W2 NEPAL
Flight Level:FL190
No Slew and time accel
No pause
Crash detect
Detect pilot in Cockpit between each 30 and 45 minutes
07:27 Zero fuel Weight: 181581 Lbs, Fuel Weight: 74918 Lbs
07:27 VATSIM:LEPA 080700Z 00000KT 9000 FEW030 19/19 Q1013 NOSIG
07:27 VATSIM:LEBL 080700Z 05012KT 9999 SCT015 BKN054 22/18 Q1013 NOSIG
07:27 VOICE CATALONIAN
07:34 Parking Brakes off
07:47 Take-off
07:47 Take off Weight: 255237 Lbs
07:47 Wind: 000 @ 000 Knots Heading: 058
07:47 POS N39 33 24 E002 43 51
07:47 Flaps:3 at 175 Knots
07:47 Gear Up: 176 Knots
07:47 Flaps:2 at 164 Knots
07:48 Flaps:1 at 199 Knots
07:49 Flaps:0 at 208 Knots
07:54 TOC
07:54 Fuel Weight: 70554Lb
08:01 TOD
08:01 Fuel Weight: 69217 Lb
08:02 Wind:232@019 Knots Heading: 333 Ground Speed: 358 Knots Altitude 18412 ft
08:11 Flaps:1 at 191 Knots
08:12 Flaps:2 at 190 Knots
08:16 Flaps:3 at 180 Knots
08:17 Wind:122@013 Knots Heading: 035 Ground Speed: 182 Knots Altitude 3339 ft
08:18 Gear Down: 172 Knots
08:18 Flaps:4 at 170 Knots
08:20 Flaps:5 at 170 Knots
08:21 Flaps:6 at 165 Knots
08:23 TouchDown:Rate -420 ft/min Speed: 148 Knots
08:24 VATSIM:LEBL 080800Z 05012KT 020V080 9999 SCT015 BKN054 23/19 Q1014 NOSIG
08:24 Land
08:24 Wind:055@012 Knots
08:24 Heading: 066
08:24 Flight Duration: 00:37
08:24 Landing Weight: 247948 Lbs
08:24 POS N41 17 14 E002 05 21
08:27 Parking brakes on
08:27 Block to Block Duration: 00:54
08:27 Final Fuel: 65833 Lbls
08:27 Spent Fuel: 9085 Lbls
08:27 Flight Length: 164 NM
08:27 TOD Land Length: 86 NM

Exportar CSV

Powered by Drupal - Modified by Danger4k